createdAt,value
2018-05-11T00:00:28.352Z,11.00
2018-05-11T00:02:55.841Z,10.90
2018-05-11T00:05:23.351Z,10.90
2018-05-11T00:07:51.524Z,10.80
2018-05-11T00:10:19.783Z,10.80
2018-05-11T00:12:47.255Z,10.80
2018-05-11T00:15:14.719Z,10.80
2018-05-11T00:17:42.199Z,10.80
2018-05-11T00:20:09.896Z,10.70
2018-05-11T00:22:37.370Z,10.70
2018-05-11T00:25:04.862Z,10.80
2018-05-11T00:27:32.478Z,10.80
2018-05-11T00:29:59.946Z,10.80
2018-05-11T00:32:27.426Z,10.80
2018-05-11T00:34:54.918Z,10.60
2018-05-11T00:37:22.595Z,10.50
2018-05-11T00:39:50.078Z,10.50
2018-05-11T00:42:17.593Z,10.50
2018-05-11T00:44:45.078Z,10.50
2018-05-11T00:47:12.564Z,10.40
2018-05-11T00:49:40.041Z,10.40
2018-05-11T00:52:07.836Z,10.30
2018-05-11T00:54:35.586Z,10.30
2018-05-11T00:57:03.083Z,10.30
2018-05-11T00:59:30.793Z,10.30
2018-05-11T01:01:58.295Z,10.30
2018-05-11T01:04:25.941Z,10.30
2018-05-11T01:06:54.197Z,10.40
2018-05-11T01:09:22.470Z,10.30
2018-05-11T01:11:50.231Z,10.30
2018-05-11T01:14:17.752Z,10.30
2018-05-11T01:16:45.217Z,10.30
2018-05-11T01:19:12.731Z,10.30
2018-05-11T01:21:40.991Z,10.40
2018-05-11T01:24:08.464Z,10.30
2018-05-11T01:26:35.934Z,10.40
2018-05-11T01:29:03.425Z,10.30
2018-05-11T01:31:31.131Z,10.20
2018-05-11T01:33:58.612Z,10.00
2018-05-11T01:36:26.266Z,10.00
2018-05-11T01:38:53.749Z,10.00
2018-05-11T01:41:21.219Z,10.00
2018-05-11T01:43:48.730Z,10.00
2018-05-11T01:46:16.209Z,10.00
2018-05-11T01:48:43.812Z,9.90
2018-05-11T01:51:11.287Z,10.00
2018-05-11T01:53:38.821Z,9.90
2018-05-11T01:56:06.323Z,10.00
2018-05-11T01:58:33.796Z,9.90
2018-05-11T02:01:01.287Z,10.00
2018-05-11T02:03:28.766Z,9.90
2018-05-11T02:05:56.254Z,9.90
2018-05-11T02:08:23.739Z,9.90
2018-05-11T02:10:51.997Z,9.90
2018-05-11T02:13:19.456Z,9.80
2018-05-11T02:15:46.934Z,9.80
2018-05-11T02:18:14.433Z,9.80
2018-05-11T02:20:41.985Z,9.80
2018-05-11T02:23:09.475Z,9.90
2018-05-11T02:25:36.944Z,9.80
2018-05-11T02:28:04.428Z,9.70
2018-05-11T02:30:31.921Z,9.60
2018-05-11T02:32:59.428Z,9.50
2018-05-11T02:35:27.678Z,9.40
2018-05-11T02:37:55.167Z,9.40
2018-05-11T02:40:22.666Z,9.40
2018-05-11T02:42:50.196Z,9.40
2018-05-11T02:45:17.899Z,9.30
2018-05-11T02:47:45.440Z,9.30
2018-05-11T02:50:12.963Z,9.20
2018-05-11T02:52:41.219Z,9.20
2018-05-11T02:55:08.737Z,9.20
2018-05-11T02:57:36.231Z,9.30
2018-05-11T03:00:03.713Z,9.30
2018-05-11T03:02:31.217Z,9.30
2018-05-11T03:04:58.726Z,9.30
2018-05-11T03:07:26.216Z,9.30
2018-05-11T03:09:53.734Z,9.30
2018-05-11T03:12:21.210Z,9.30
2018-05-11T03:14:48.715Z,9.20
2018-05-11T03:17:16.307Z,9.10
2018-05-11T03:19:43.818Z,9.00
2018-05-11T03:22:11.319Z,9.00
2018-05-11T03:24:38.819Z,8.90
2018-05-11T03:27:06.333Z,9.00
2018-05-11T03:29:33.809Z,9.00
2018-05-11T03:32:01.350Z,9.10
2018-05-11T03:34:28.831Z,8.90
2018-05-11T03:36:56.322Z,8.80
2018-05-11T03:39:23.858Z,8.90
2018-05-11T03:41:51.335Z,8.80
2018-05-11T03:44:18.821Z,8.90
2018-05-11T03:46:46.327Z,9.00
2018-05-11T03:49:13.866Z,9.00
2018-05-11T03:51:41.363Z,9.00
2018-05-11T03:54:08.854Z,9.00
2018-05-11T03:56:36.369Z,8.90
2018-05-11T03:59:03.870Z,8.80
2018-05-11T04:01:43.206Z,8.70
2018-05-11T04:04:22.562Z,8.70
2018-05-11T04:07:02.672Z,8.70
2018-05-11T04:09:30.191Z,8.60
2018-05-11T04:11:57.692Z,8.60
2018-05-11T04:14:26.016Z,8.80
2018-05-11T04:16:53.516Z,8.80
2018-05-11T04:19:21.075Z,8.80
2018-05-11T04:21:48.617Z,8.90
2018-05-11T04:24:16.123Z,8.90
2018-05-11T04:26:43.631Z,8.90
2018-05-11T04:29:11.144Z,9.00
2018-05-11T04:31:38.662Z,9.10
2018-05-11T04:34:06.173Z,9.10
2018-05-11T04:36:33.655Z,9.20
2018-05-11T04:39:01.295Z,9.20
2018-05-11T04:41:28.855Z,9.40
2018-05-11T04:43:56.415Z,9.40
2018-05-11T04:46:23.913Z,9.50
2018-05-11T04:48:51.466Z,9.60
2018-05-11T04:51:18.989Z,9.60
2018-05-11T04:53:46.548Z,9.60
2018-05-11T04:56:14.106Z,9.80
2018-05-11T04:58:41.625Z,9.80
2018-05-11T05:01:09.487Z,10.00
2018-05-11T05:03:36.975Z,10.00
2018-05-11T05:06:04.608Z,10.00
2018-05-11T05:08:32.111Z,10.10
2018-05-11T05:10:59.668Z,10.20
2018-05-11T05:13:27.224Z,10.10
2018-05-11T05:15:54.757Z,10.10
2018-05-11T05:18:22.252Z,10.10
2018-05-11T05:20:49.752Z,10.00
2018-05-11T05:23:17.335Z,10.10
2018-05-11T05:25:44.821Z,10.20
2018-05-11T05:28:12.358Z,10.30
2018-05-11T05:30:40.596Z,10.40
2018-05-11T05:33:08.157Z,10.40
2018-05-11T05:35:35.567Z,10.50
2018-05-11T05:38:03.051Z,10.60
2018-05-11T05:40:30.518Z,10.60
2018-05-11T05:42:58.141Z,10.70
2018-05-11T05:45:26.385Z,10.90
2018-05-11T05:47:54.009Z,10.90
2018-05-11T05:50:21.530Z,11.10
2018-05-11T05:52:49.299Z,11.10
2018-05-11T05:55:16.783Z,11.30
2018-05-11T05:57:44.427Z,11.40
2018-05-11T06:00:11.894Z,11.40
2018-05-11T06:02:40.275Z,11.60
2018-05-11T06:05:07.741Z,11.60
2018-05-11T06:07:35.207Z,11.50
2018-05-11T06:10:02.702Z,11.50
2018-05-11T06:12:30.220Z,11.70
2018-05-11T06:14:57.695Z,11.90
2018-05-11T06:17:25.161Z,12.00
2018-05-11T06:19:52.866Z,12.10
2018-05-11T06:22:20.329Z,12.20
2018-05-11T06:24:48.157Z,12.30
2018-05-11T06:27:15.591Z,12.20
2018-05-11T06:29:43.222Z,12.20
2018-05-11T06:32:10.771Z,12.30
2018-05-11T06:34:38.229Z,12.50
2018-05-11T06:37:05.868Z,12.50
2018-05-11T06:39:33.386Z,12.50
2018-05-11T06:42:00.877Z,12.70
2018-05-11T06:44:28.330Z,12.80
2018-05-11T06:46:56.117Z,12.80
2018-05-11T06:49:23.578Z,12.90
2018-05-11T06:51:51.046Z,13.00
2018-05-11T06:54:18.817Z,13.10
2018-05-11T06:56:46.506Z,13.20
2018-05-11T06:59:13.994Z,13.30
2018-05-11T07:01:41.601Z,13.40
2018-05-11T07:04:09.258Z,13.40
2018-05-11T07:06:36.864Z,13.50
2018-05-11T07:09:04.300Z,13.50
2018-05-11T07:11:32.590Z,13.80
2018-05-11T07:14:00.084Z,13.70
2018-05-11T07:16:27.585Z,13.80
2018-05-11T07:18:55.837Z,13.70
2018-05-11T07:21:23.617Z,13.60
2018-05-11T07:23:51.083Z,13.80
2018-05-11T07:26:18.562Z,13.90
2018-05-11T07:28:46.142Z,13.90
2018-05-11T07:31:13.684Z,14.00
2018-05-11T07:33:41.213Z,14.10
2018-05-11T07:36:08.859Z,14.40
2018-05-11T07:38:36.401Z,14.50
2018-05-11T07:41:03.911Z,14.60
2018-05-11T07:43:31.475Z,14.90
2018-05-11T07:45:59.025Z,14.70
2018-05-11T07:48:26.556Z,14.80
2018-05-11T07:50:54.016Z,15.00
2018-05-11T07:53:21.490Z,15.10
2018-05-11T07:55:48.954Z,15.50
2018-05-11T07:58:16.452Z,15.70
2018-05-11T08:00:43.987Z,16.10
2018-05-11T08:03:12.261Z,15.60
2018-05-11T08:05:40.511Z,15.70
2018-05-11T08:08:08.002Z,15.80
2018-05-11T08:10:35.558Z,16.10
2018-05-11T08:13:03.262Z,16.40
2018-05-11T08:15:30.736Z,17.00
2018-05-11T08:17:58.202Z,17.40
2018-05-11T08:20:25.676Z,17.40
2018-05-11T08:22:53.150Z,17.00
2018-05-11T08:25:20.605Z,16.60
2018-05-11T08:27:48.366Z,16.20
2018-05-11T08:30:16.683Z,17.00
2018-05-11T08:32:44.273Z,17.00
2018-05-11T08:35:11.874Z,17.20
2018-05-11T08:37:39.399Z,17.10
2018-05-11T08:40:06.936Z,17.80
2018-05-11T08:42:34.473Z,18.30
2018-05-11T08:45:02.715Z,19.50
2018-05-11T08:47:30.221Z,19.50
2018-05-11T08:49:57.724Z,19.80
2018-05-11T08:52:25.386Z,20.30
2018-05-11T08:54:53.158Z,20.80
2018-05-11T08:57:20.638Z,21.20
2018-05-11T08:59:48.107Z,20.60
2018-05-11T09:02:15.590Z,20.30
2018-05-11T09:04:43.066Z,20.10
2018-05-11T09:07:10.551Z,19.60
2018-05-11T09:09:38.056Z,20.00
2018-05-11T09:12:05.543Z,21.20
2018-05-11T09:14:33.142Z,22.90
2018-05-11T09:17:00.663Z,24.80
2018-05-11T09:19:28.295Z,25.90
2018-05-11T09:21:55.838Z,26.80
2018-05-11T09:24:23.255Z,27.60
2018-05-11T09:26:50.758Z,27.20
2018-05-11T09:29:18.255Z,27.30
2018-05-11T09:31:45.987Z,27.30
2018-05-11T09:34:13.518Z,28.10
2018-05-11T09:36:40.982Z,27.30
2018-05-11T09:39:08.583Z,25.80
2018-05-11T09:41:36.099Z,24.80
2018-05-11T09:44:03.578Z,24.40
2018-05-11T09:46:31.078Z,24.70
2018-05-11T09:48:58.559Z,25.90
2018-05-11T09:51:26.041Z,26.90
2018-05-11T09:53:53.515Z,28.20
2018-05-11T09:56:21.747Z,29.60
2018-05-11T09:58:49.534Z,29.50
2018-05-11T10:01:17.082Z,30.00
2018-05-11T10:03:44.572Z,29.20
2018-05-11T10:06:12.807Z,30.30
2018-05-11T10:08:40.295Z,30.30
2018-05-11T10:11:07.851Z,30.10
2018-05-11T10:13:35.539Z,29.70
2018-05-11T10:16:03.025Z,29.20
2018-05-11T10:18:30.573Z,29.30
2018-05-11T10:20:59.542Z,29.30
2018-05-11T10:23:27.786Z,30.20
2018-05-11T10:25:56.230Z,30.20
2018-05-11T10:28:23.737Z,30.40
2018-05-11T10:30:51.210Z,29.80
2018-05-11T10:33:19.462Z,31.90
2018-05-11T10:35:46.926Z,31.90
2018-05-11T10:38:14.393Z,31.50
2018-05-11T10:40:41.859Z,32.10
2018-05-11T10:45:43.326Z,31.30
2018-05-11T10:48:11.556Z,32.80
2018-05-11T10:50:39.032Z,32.70
2018-05-11T10:53:06.506Z,33.40
2018-05-11T10:55:33.991Z,32.90
2018-05-11T10:58:01.483Z,33.80
2018-05-11T11:00:29.143Z,34.30
2018-05-11T11:02:56.610Z,35.20
2018-05-11T11:05:24.117Z,34.30
2018-05-11T11:07:52.282Z,33.90
2018-05-11T11:10:19.738Z,33.60
2018-05-11T11:12:47.400Z,33.00
2018-05-11T11:15:14.876Z,32.20
2018-05-11T11:17:42.339Z,32.80
2018-05-11T11:20:09.794Z,32.80
2018-05-11T11:22:37.274Z,33.70
2018-05-11T11:25:04.995Z,34.20
2018-05-11T11:27:32.454Z,34.40
2018-05-11T11:29:59.919Z,34.90
2018-05-11T11:32:27.383Z,34.60
2018-05-11T11:34:54.861Z,32.80
2018-05-11T11:37:22.513Z,33.20
2018-05-11T11:39:49.967Z,33.60
2018-05-11T11:42:17.496Z,34.00
2018-05-11T11:44:44.903Z,34.80
2018-05-11T11:47:12.451Z,34.20
2018-05-11T11:49:40.101Z,34.20
2018-05-11T11:52:07.649Z,33.90
2018-05-11T11:54:35.391Z,33.40
2018-05-11T11:57:02.861Z,31.60
2018-05-11T11:59:30.313Z,31.40
2018-05-11T12:01:58.737Z,31.90
2018-05-11T12:04:26.195Z,31.90
2018-05-11T12:06:53.659Z,32.90
2018-05-11T12:09:21.932Z,34.20
2018-05-11T12:11:49.389Z,34.10
2018-05-11T12:14:16.923Z,33.60
2018-05-11T12:16:44.383Z,33.70
2018-05-11T12:19:12.055Z,33.80
2018-05-11T12:21:39.519Z,34.20
2018-05-11T12:24:07.013Z,34.30
2018-05-11T12:26:34.477Z,33.30
2018-05-11T12:29:01.984Z,32.90
2018-05-11T12:31:29.750Z,32.20
2018-05-11T12:33:57.218Z,32.00
2018-05-11T12:36:24.798Z,32.30
2018-05-11T12:38:52.279Z,32.20
2018-05-11T12:41:19.798Z,32.70
2018-05-11T12:43:47.356Z,33.50
2018-05-11T12:46:14.839Z,34.10
2018-05-11T12:48:42.567Z,35.40
2018-05-11T12:51:10.085Z,33.40
2018-05-11T12:53:37.797Z,31.80
2018-05-11T12:56:05.250Z,31.70
2018-05-11T12:58:32.718Z,32.80
2018-05-11T13:01:00.178Z,33.80
2018-05-11T13:03:27.651Z,34.20
2018-05-11T13:05:55.115Z,35.10
2018-05-11T13:08:22.853Z,35.00
2018-05-11T13:10:51.226Z,35.30
2018-05-11T13:13:20.377Z,35.60
2018-05-11T13:15:47.897Z,35.60
2018-05-11T13:18:15.446Z,34.90
2018-05-11T13:20:42.983Z,35.00
2018-05-11T13:23:10.586Z,35.30
2018-05-11T13:25:38.055Z,34.30
2018-05-11T13:28:05.582Z,33.60
2018-05-11T13:30:33.303Z,32.80
2018-05-11T13:33:00.722Z,32.40
2018-05-11T13:35:28.423Z,31.20
2018-05-11T13:37:55.891Z,30.30
2018-05-11T13:40:23.455Z,29.30
2018-05-11T13:42:50.922Z,29.10
2018-05-11T13:45:18.387Z,29.00
2018-05-11T13:47:45.920Z,28.80
2018-05-11T13:50:13.622Z,28.50
2018-05-11T13:52:41.091Z,28.10
2018-05-11T13:55:08.545Z,28.10
2018-05-11T13:57:36.013Z,28.20
2018-05-11T14:00:03.462Z,27.90
2018-05-11T14:02:31.218Z,28.20
2018-05-11T14:04:58.686Z,28.30
2018-05-11T14:07:26.155Z,28.50
2018-05-11T14:09:53.656Z,28.70
2018-05-11T14:12:21.115Z,29.60
2018-05-11T14:14:49.164Z,31.50
2018-05-11T14:17:16.891Z,31.90
2018-05-11T14:19:44.437Z,32.40
2018-05-11T14:22:11.962Z,33.10
2018-05-11T14:24:39.527Z,33.00
2018-05-11T14:27:07.049Z,33.60
2018-05-11T14:29:34.795Z,34.20
2018-05-11T14:32:02.289Z,34.30
2018-05-11T14:34:29.732Z,34.00
2018-05-11T14:36:57.201Z,33.90
2018-05-11T14:39:24.861Z,33.60
2018-05-11T14:41:52.403Z,33.10
2018-05-11T14:44:19.869Z,33.10
2018-05-11T14:46:47.335Z,32.20
2018-05-11T14:49:14.837Z,32.20
2018-05-11T14:51:42.304Z,32.50
2018-05-11T14:54:09.843Z,32.90
2018-05-11T14:56:37.310Z,33.00
2018-05-11T14:59:04.920Z,33.40
2018-05-11T15:01:32.516Z,32.90
2018-05-11T15:04:00.128Z,32.10
2018-05-11T15:06:27.591Z,32.60
2018-05-11T15:08:55.051Z,32.20
2018-05-11T15:11:22.831Z,31.60
2018-05-11T15:13:50.289Z,31.00
2018-05-11T15:16:18.038Z,30.50
2018-05-11T15:18:45.494Z,29.50
2018-05-11T15:21:13.008Z,29.10
2018-05-11T15:23:40.459Z,28.60
2018-05-11T15:26:07.937Z,28.10
2018-05-11T15:28:35.406Z,28.00
2018-05-11T15:31:02.900Z,27.70
2018-05-11T15:33:30.554Z,27.50
2018-05-11T15:35:58.055Z,27.20
2018-05-11T15:38:25.716Z,26.70
2018-05-11T15:40:53.244Z,26.30
2018-05-11T15:43:20.963Z,26.00
2018-05-11T15:45:48.433Z,25.90
2018-05-11T15:48:15.920Z,25.20
2018-05-11T15:50:43.383Z,24.90
2018-05-11T15:53:10.900Z,24.50
2018-05-11T15:55:38.353Z,24.30
2018-05-11T15:58:05.823Z,24.10
2018-05-11T16:00:33.470Z,24.30
2018-05-11T16:03:01.318Z,24.30
2018-05-11T16:05:28.789Z,24.30
2018-05-11T16:07:56.267Z,24.30
2018-05-11T16:10:23.767Z,24.50
2018-05-11T16:12:51.481Z,24.50
2018-05-11T16:15:18.801Z,24.50
2018-05-11T16:17:46.337Z,24.60
2018-05-11T16:20:13.845Z,24.30
2018-05-11T16:22:41.317Z,24.30
2018-05-11T16:25:08.812Z,24.30
2018-05-11T16:27:36.297Z,24.30
2018-05-11T16:30:04.707Z,23.80
2018-05-11T16:32:32.311Z,23.80
2018-05-11T16:35:00.070Z,23.70
2018-05-11T16:37:27.839Z,23.50
2018-05-11T16:39:55.335Z,23.20
2018-05-11T16:42:23.057Z,23.20
2018-05-11T16:44:50.598Z,23.20
2018-05-11T16:47:18.054Z,23.30
2018-05-11T16:49:45.633Z,23.30
2018-05-11T16:52:13.425Z,23.30
2018-05-11T16:54:40.971Z,23.30
2018-05-11T16:57:08.611Z,23.20
2018-05-11T16:59:36.093Z,23.10
2018-05-11T17:02:03.643Z,23.00
2018-05-11T17:04:31.286Z,23.00
2018-05-11T17:06:58.822Z,22.90
2018-05-11T17:09:26.309Z,22.80
2018-05-11T17:11:53.861Z,22.70
2018-05-11T17:14:21.455Z,22.80
2018-05-11T17:16:48.940Z,22.70
2018-05-11T17:19:16.622Z,22.50
2018-05-11T17:21:44.081Z,22.60
2018-05-11T17:24:11.546Z,22.60
2018-05-11T17:26:39.006Z,22.60
2018-05-11T17:29:06.655Z,22.60
2018-05-11T17:31:34.372Z,22.40
2018-05-11T17:34:01.835Z,22.50
2018-05-11T17:36:29.655Z,22.40
2018-05-11T17:38:57.372Z,22.20
2018-05-11T17:41:24.934Z,22.10
2018-05-11T17:43:52.365Z,22.10
2018-05-11T17:46:20.066Z,22.10
2018-05-11T17:48:47.540Z,22.10
2018-05-11T17:51:15.023Z,22.10
2018-05-11T17:53:42.513Z,22.10
2018-05-11T17:56:09.979Z,22.10
2018-05-11T17:58:37.457Z,22.00
2018-05-11T18:01:05.698Z,21.80
2018-05-11T18:03:33.174Z,21.80
2018-05-11T18:06:00.733Z,21.70
2018-05-11T18:08:28.206Z,21.70
2018-05-11T18:10:56.438Z,21.50
2018-05-11T18:13:23.946Z,21.50
2018-05-11T18:15:51.440Z,21.40
2018-05-11T18:18:18.916Z,21.40
2018-05-11T18:20:46.433Z,21.30
2018-05-11T18:23:14.674Z,21.20
2018-05-11T18:25:42.151Z,21.20
2018-05-11T18:28:09.834Z,21.20
2018-05-11T18:30:37.313Z,21.10
2018-05-11T18:33:04.767Z,21.00
2018-05-11T18:35:32.237Z,21.00
2018-05-11T18:37:59.729Z,20.90
2018-05-11T18:40:28.708Z,20.80
2018-05-11T18:42:56.182Z,20.80
2018-05-11T18:45:25.150Z,20.80
2018-05-11T18:47:52.949Z,20.70
2018-05-11T18:50:20.712Z,20.70
2018-05-11T18:52:49.007Z,20.50
2018-05-11T18:55:16.543Z,20.50
2018-05-11T18:57:43.993Z,20.50
2018-05-11T19:00:11.776Z,20.40
2018-05-11T19:02:39.538Z,20.30
2018-05-11T19:05:08.460Z,20.20
2018-05-11T19:07:35.990Z,20.10
2018-05-11T19:10:03.752Z,20.00
2018-05-11T19:12:32.734Z,19.80
2018-05-11T19:15:00.217Z,19.80
2018-05-11T19:17:27.975Z,19.70
2018-05-11T19:19:56.933Z,19.50
2018-05-11T19:22:24.391Z,19.50
2018-05-11T19:24:51.854Z,19.50
2018-05-11T19:27:19.313Z,19.40
2018-05-11T19:29:46.782Z,19.30
2018-05-11T19:32:14.247Z,19.00
2018-05-11T19:34:41.824Z,18.90
2018-05-11T19:37:09.278Z,18.90
2018-05-11T19:39:36.747Z,18.80
2018-05-11T19:42:05.018Z,18.80
2018-05-11T19:44:32.487Z,18.80
2018-05-11T19:46:59.942Z,18.80
2018-05-11T19:49:27.702Z,18.70
2018-05-11T19:51:55.167Z,18.70
2018-05-11T19:54:22.623Z,18.70
2018-05-11T19:56:50.252Z,18.60
2018-05-11T19:59:17.754Z,18.60
2018-05-11T20:01:45.214Z,18.60
2018-05-11T20:04:12.742Z,18.60
2018-05-11T20:06:40.512Z,18.60
2018-05-11T20:09:07.974Z,18.60
2018-05-11T20:11:37.275Z,18.50
2018-05-11T20:14:06.237Z,18.50
2018-05-11T20:16:33.727Z,18.50
2018-05-11T20:19:01.186Z,18.50
2018-05-11T20:21:30.154Z,18.40
2018-05-11T20:23:57.626Z,18.40
2018-05-11T20:26:25.405Z,18.30
2018-05-11T20:28:54.370Z,18.10
2018-05-11T20:31:21.833Z,18.20
2018-05-11T20:33:49.307Z,18.10
2018-05-11T20:36:18.282Z,18.10
2018-05-11T20:38:45.759Z,18.00
2018-05-11T20:41:13.236Z,18.00
2018-05-11T20:43:40.897Z,18.00
2018-05-11T20:46:09.170Z,18.00
2018-05-11T20:48:36.850Z,18.00
2018-05-11T20:51:04.334Z,18.00
2018-05-11T20:53:31.827Z,17.90
2018-05-11T20:55:59.322Z,18.00
2018-05-11T20:58:27.568Z,17.90
2018-05-11T21:00:56.571Z,17.90
2018-05-11T21:03:24.359Z,17.90
2018-05-11T21:05:52.100Z,18.00
2018-05-11T21:08:21.074Z,17.90
2018-05-11T21:10:48.547Z,17.90
2018-05-11T21:13:16.029Z,17.80
2018-05-11T21:15:43.584Z,17.80
2018-05-11T21:18:11.084Z,17.80
2018-05-11T21:20:38.549Z,17.70
2018-05-11T21:23:06.059Z,17.70
2018-05-11T21:25:33.615Z,17.60
2018-05-11T21:28:02.588Z,17.60
2018-05-11T21:30:30.065Z,17.50
2018-05-11T21:32:59.070Z,17.50
2018-05-11T21:35:26.542Z,17.50
2018-05-11T21:37:54.342Z,17.50
2018-05-11T21:40:21.856Z,17.50
2018-05-11T21:42:50.130Z,17.50
2018-05-11T21:45:17.896Z,17.50
2018-05-11T21:47:45.365Z,17.40
2018-05-11T21:50:12.832Z,17.40
2018-05-11T21:52:40.569Z,17.50
2018-05-11T21:55:09.529Z,17.40
2018-05-11T21:57:36.994Z,17.40
2018-05-11T22:00:05.410Z,17.40
2018-05-11T22:02:33.171Z,17.40
2018-05-11T22:05:01.478Z,17.30
2018-05-11T22:07:29.150Z,17.30
2018-05-11T22:09:56.797Z,17.30
2018-05-11T22:12:24.274Z,17.40
2018-05-11T22:14:51.739Z,17.40
2018-05-11T22:17:19.356Z,17.40
2018-05-11T22:19:46.868Z,17.40
2018-05-11T22:22:14.343Z,17.30
2018-05-11T22:24:41.851Z,17.30
2018-05-11T22:27:09.595Z,17.30
2018-05-11T22:29:37.074Z,17.20
2018-05-11T22:32:04.807Z,17.20
2018-05-11T22:34:33.801Z,17.00
2018-05-11T22:37:01.261Z,17.00
2018-05-11T22:39:29.619Z,17.00
2018-05-11T22:41:57.180Z,17.00
2018-05-11T22:44:24.795Z,17.00
2018-05-11T22:46:52.310Z,17.00
2018-05-11T22:49:19.787Z,16.90
2018-05-11T22:51:47.255Z,16.90
2018-05-11T22:54:14.921Z,16.80
2018-05-11T22:56:42.488Z,16.70
2018-05-11T22:59:09.919Z,16.70
2018-05-11T23:01:37.419Z,16.70
2018-05-11T23:04:04.883Z,16.60
2018-05-11T23:06:32.455Z,16.70
2018-05-11T23:09:00.057Z,16.70
2018-05-11T23:11:29.032Z,16.70
2018-05-11T23:13:56.510Z,16.70
2018-05-11T23:16:25.487Z,16.70
2018-05-11T23:18:53.169Z,16.60
2018-05-11T23:21:20.655Z,16.80
2018-05-11T23:23:48.174Z,16.80
2018-05-11T23:26:15.663Z,16.80
2018-05-11T23:28:43.339Z,16.80
2018-05-11T23:31:10.805Z,16.80
2018-05-11T23:33:38.331Z,16.80
2018-05-11T23:36:05.902Z,16.70
2018-05-11T23:38:34.147Z,16.70
2018-05-11T23:41:01.619Z,16.70
2018-05-11T23:43:29.078Z,16.80
2018-05-11T23:45:56.558Z,16.60
2018-05-11T23:48:24.068Z,16.70
2018-05-11T23:50:51.523Z,16.70
2018-05-11T23:53:18.997Z,16.60
2018-05-11T23:55:46.574Z,16.60
2018-05-11T23:58:14.130Z,16.60
